sensor_id;sensor_type;location;lat;lon;timestamp;pressure;altitude;pressure_sealevel;temperature
27815;BMP280;15190;52.122;9.956;2023-03-24T00:01:23;99107.69;;;13.18
27815;BMP280;15190;52.122;9.956;2023-03-24T00:03:49;99115.34;;;13.22
27815;BMP280;15190;52.122;9.956;2023-03-24T00:06:17;99117.94;;;13.24
27815;BMP280;15190;52.122;9.956;2023-03-24T00:08:43;99115.34;;;13.19
27815;BMP280;15190;52.122;9.956;2023-03-24T00:11:12;99115.34;;;13.22
27815;BMP280;15190;52.122;9.956;2023-03-24T00:13:40;99117.03;;;13.20
27815;BMP280;15190;52.122;9.956;2023-03-24T00:16:11;99111.13;;;13.21
27815;BMP280;15190;52.122;9.956;2023-03-24T00:18:38;99106.94;;;13.23
27815;BMP280;15190;52.122;9.956;2023-03-24T00:21:05;99103.56;;;13.26
27815;BMP280;15190;52.122;9.956;2023-03-24T00:23:32;99097.75;;;13.31
27815;BMP280;15190;52.122;9.956;2023-03-24T00:26:03;99095.97;;;13.26
27815;BMP280;15190;52.122;9.956;2023-03-24T00:28:32;99091.75;;;13.27
27815;BMP280;15190;52.122;9.956;2023-03-24T00:31:02;99089.22;;;13.27
27815;BMP280;15190;52.122;9.956;2023-03-24T00:33:31;99091.78;;;13.29
27815;BMP280;15190;52.122;9.956;2023-03-24T00:36:05;99093.47;;;13.28
27815;BMP280;15190;52.122;9.956;2023-03-24T00:38:33;99093.50;;;13.30
27815;BMP280;15190;52.122;9.956;2023-03-24T00:41:00;99084.19;;;13.29
27815;BMP280;15190;52.122;9.956;2023-03-24T00:43:27;99090.16;;;13.32
27815;BMP280;15190;52.122;9.956;2023-03-24T00:46:06;99070.59;;;13.26
27815;BMP280;15190;52.122;9.956;2023-03-24T00:48:34;99060.41;;;13.23
27815;BMP280;15190;52.122;9.956;2023-03-24T00:51:01;99055.31;;;13.23
27815;BMP280;15190;52.122;9.956;2023-03-24T00:53:28;99055.31;;;13.23
27815;BMP280;15190;52.122;9.956;2023-03-24T00:55:55;99047.59;;;13.15
27815;BMP280;15190;52.122;9.956;2023-03-24T00:58:21;99040.75;;;13.11
27815;BMP280;15190;52.122;9.956;2023-03-24T01:00:53;99033.91;;;13.07
27815;BMP280;15190;52.122;9.956;2023-03-24T01:03:20;99039.03;;;13.09
27815;BMP280;15190;52.122;9.956;2023-03-24T01:05:49;99039.91;;;13.11
27815;BMP280;15190;52.122;9.956;2023-03-24T01:08:16;99040.88;;;13.20
27815;BMP280;15190;52.122;9.956;2023-03-24T01:10:48;99033.13;;;13.11
27815;BMP280;15190;52.122;9.956;2023-03-24T01:13:24;99028.91;;;13.10
27815;BMP280;15190;52.122;9.956;2023-03-24T01:15:51;99032.22;;;13.08
27815;BMP280;15190;52.122;9.956;2023-03-24T01:18:17;99027.13;;;13.05
27815;BMP280;15190;52.122;9.956;2023-03-24T01:20:46;99026.28;;;13.06
27815;BMP280;15190;52.122;9.956;2023-03-24T01:23:20;99017.88;;;13.08
27815;BMP280;15190;52.122;9.956;2023-03-24T01:25:47;99011.06;;;13.06
27815;BMP280;15190;52.122;9.956;2023-03-24T01:28:15;99003.47;;;13.07
27815;BMP280;15190;52.122;9.956;2023-03-24T01:30:42;99006.84;;;13.08
27815;BMP280;15190;52.122;9.956;2023-03-24T01:33:09;98992.53;;;13.10
27815;BMP280;15190;52.122;9.956;2023-03-24T01:35:35;98988.34;;;13.12
27815;BMP280;15190;52.122;9.956;2023-03-24T01:38:06;98993.44;;;13.15
27815;BMP280;15190;52.122;9.956;2023-03-24T01:40:34;98995.19;;;13.17
27815;BMP280;15190;52.122;9.956;2023-03-24T01:43:01;98986.72;;;13.18
27815;BMP280;15190;52.122;9.956;2023-03-24T01:45:57;98984.16;;;13.15
27815;BMP280;15190;52.122;9.956;2023-03-24T01:48:37;98983.25;;;13.13
27815;BMP280;15190;52.122;9.956;2023-03-24T01:51:10;98980.72;;;13.12
27815;BMP280;15190;52.122;9.956;2023-03-24T01:53:42;98979.94;;;13.16
27815;BMP280;15190;52.122;9.956;2023-03-24T01:56:09;98963.84;;;13.14
27815;BMP280;15190;52.122;9.956;2023-03-24T01:58:37;98962.25;;;13.22
27815;BMP280;15190;52.122;9.956;2023-03-24T02:01:04;98959.66;;;13.19
27815;BMP280;15190;52.122;9.956;2023-03-24T02:03:31;98952.91;;;13.19
27815;BMP280;15190;52.122;9.956;2023-03-24T02:06:01;98946.94;;;13.16
27815;BMP280;15190;52.122;9.956;2023-03-24T02:08:32;98946.97;;;13.17
27815;BMP280;15190;52.122;9.956;2023-03-24T02:11:01;98940.22;;;13.19
27815;BMP280;15190;52.122;9.956;2023-03-24T02:13:27;98935.19;;;13.21
27815;BMP280;15190;52.122;9.956;2023-03-24T02:21:27;98919.94;;;13.21
27815;BMP280;15190;52.122;9.956;2023-03-24T02:24:00;98924.94;;;13.16
27815;BMP280;15190;52.122;9.956;2023-03-24T02:34:56;98907.97;;;13.12
27815;BMP280;15190;52.122;9.956;2023-03-24T02:40:29;98905.47;;;13.14
27815;BMP280;15190;52.122;9.956;2023-03-24T02:48:26;98897.84;;;13.14
27815;BMP280;15190;52.122;9.956;2023-03-24T02:53:49;98896.97;;;13.10
27815;BMP280;15190;52.122;9.956;2023-03-24T02:59:06;98896.25;;;13.22
27815;BMP280;15190;52.122;9.956;2023-03-24T03:01:39;98887.81;;;13.23
27815;BMP280;15190;52.122;9.956;2023-03-24T03:04:17;98888.66;;;13.22
27815;BMP280;15190;52.122;9.956;2023-03-24T03:06:51;98880.25;;;13.27
27815;BMP280;15190;52.122;9.956;2023-03-24T03:09:20;98873.56;;;13.33
27815;BMP280;15190;52.122;9.956;2023-03-24T03:11:50;98866.75;;;13.28
27815;BMP280;15190;52.122;9.956;2023-03-24T03:14:33;98870.06;;;13.24
27815;BMP280;15190;52.122;9.956;2023-03-24T03:17:07;98875.19;;;13.28
27815;BMP280;15190;52.122;9.956;2023-03-24T03:19:37;98871.81;;;13.28
27815;BMP280;15190;52.122;9.956;2023-03-24T03:22:11;98864.22;;;13.31
27815;BMP280;15190;52.122;9.956;2023-03-24T03:24:41;98855.78;;;13.32
27815;BMP280;15190;52.122;9.956;2023-03-24T03:27:18;98858.25;;;13.25
27815;BMP280;15190;52.122;9.956;2023-03-24T03:29:49;98854.81;;;13.24
27815;BMP280;15190;52.122;9.956;2023-03-24T03:32:29;98848.00;;;13.20
27815;BMP280;15190;52.122;9.956;2023-03-24T03:40:49;98842.81;;;13.11
27815;BMP280;15190;52.122;9.956;2023-03-24T03:43:16;98851.31;;;13.12
27815;BMP280;15190;52.122;9.956;2023-03-24T03:45:42;98859.81;;;13.15
27815;BMP280;15190;52.122;9.956;2023-03-24T03:48:09;98852.97;;;13.10
27815;BMP280;15190;52.122;9.956;2023-03-24T03:50:35;98850.44;;;13.10
27815;BMP280;15190;52.122;9.956;2023-03-24T03:53:04;98841.16;;;13.13
27815;BMP280;15190;52.122;9.956;2023-03-24T03:55:30;98843.66;;;13.09
27815;BMP280;15190;52.122;9.956;2023-03-24T03:57:57;98833.47;;;13.04
27815;BMP280;15190;52.122;9.956;2023-03-24T04:00:23;98825.03;;;13.08
27815;BMP280;15190;52.122;9.956;2023-03-24T04:05:52;98811.38;;;12.97
27815;BMP280;15190;52.122;9.956;2023-03-24T04:09:08;98815.59;;;12.97
27815;BMP280;15190;52.122;9.956;2023-03-24T04:14:26;98801.16;;;12.90
27815;BMP280;15190;52.122;9.956;2023-03-24T04:20:02;98787.63;;;12.91
27815;BMP280;15190;52.122;9.956;2023-03-24T04:23:06;98776.66;;;12.92
27815;BMP280;15190;52.122;9.956;2023-03-24T04:31:03;98756.47;;;13.01
27815;BMP280;15190;52.122;9.956;2023-03-24T04:33:40;98753.09;;;13.03
27815;BMP280;15190;52.122;9.956;2023-03-24T04:36:15;98753.13;;;13.05
27815;BMP280;15190;52.122;9.956;2023-03-24T04:38:47;98746.34;;;13.05
27815;BMP280;15190;52.122;9.956;2023-03-24T04:41:15;98741.25;;;13.04
27815;BMP280;15190;52.122;9.956;2023-03-24T04:43:43;98752.25;;;13.03
27815;BMP280;15190;52.122;9.956;2023-03-24T04:46:12;98740.44;;;13.05
27815;BMP280;15190;52.122;9.956;2023-03-24T04:48:43;98738.78;;;13.08
27815;BMP280;15190;52.122;9.956;2023-03-24T04:51:11;98726.97;;;13.10
27815;BMP280;15190;52.122;9.956;2023-03-24T04:53:37;98735.47;;;13.17
27815;BMP280;15190;52.122;9.956;2023-03-24T04:56:29;98732.94;;;13.14
27815;BMP280;15190;52.122;9.956;2023-03-24T04:58:55;98713.44;;;13.13
27815;BMP280;15190;52.122;9.956;2023-03-24T05:01:21;98713.50;;;13.19
27815;BMP280;15190;52.122;9.956;2023-03-24T05:03:48;98723.66;;;13.19
27815;BMP280;15190;52.122;9.956;2023-03-24T05:06:14;98732.16;;;13.24
27815;BMP280;15190;52.122;9.956;2023-03-24T05:08:41;98733.00;;;13.21
27815;BMP280;15190;52.122;9.956;2023-03-24T05:11:07;98729.63;;;13.24
27815;BMP280;15190;52.122;9.956;2023-03-24T05:13:33;98719.47;;;13.24
27815;BMP280;15190;52.122;9.956;2023-03-24T05:15:58;98720.31;;;13.24
27815;BMP280;15190;52.122;9.956;2023-03-24T05:18:24;98711.91;;;13.27
27815;BMP280;15190;52.122;9.956;2023-03-24T05:20:50;98711.94;;;13.28
27815;BMP280;15190;52.122;9.956;2023-03-24T05:23:16;98702.63;;;13.28
27815;BMP280;15190;52.122;9.956;2023-03-24T05:25:42;98713.63;;;13.29
27815;BMP280;15190;52.122;9.956;2023-03-24T05:28:08;98698.38;;;13.27
27815;BMP280;15190;52.122;9.956;2023-03-24T05:30:34;98705.13;;;13.27
27815;BMP280;15190;52.122;9.956;2023-03-24T05:33:02;98698.41;;;13.30
27815;BMP280;15190;52.122;9.956;2023-03-24T05:35:28;98692.47;;;13.28
27815;BMP280;15190;52.122;9.956;2023-03-24T05:37:55;98695.88;;;13.30
27815;BMP280;15190;52.122;9.956;2023-03-24T05:40:21;98699.28;;;13.34
27815;BMP280;15190;52.122;9.956;2023-03-24T05:42:48;98709.47;;;13.35
27815;BMP280;15190;52.122;9.956;2023-03-24T05:45:15;98695.91;;;13.36
27815;BMP280;15190;52.122;9.956;2023-03-24T05:47:41;98700.22;;;13.40
27815;BMP280;15190;52.122;9.956;2023-03-24T05:50:07;98704.41;;;13.40
27815;BMP280;15190;52.122;9.956;2023-03-24T05:52:33;98695.91;;;13.36
27815;BMP280;15190;52.122;9.956;2023-03-24T05:55:00;98699.34;;;13.41
27815;BMP280;15190;52.122;9.956;2023-03-24T05:57:26;98688.38;;;13.42
27815;BMP280;15190;52.122;9.956;2023-03-24T05:59:57;98687.50;;;13.42
27815;BMP280;15190;52.122;9.956;2023-03-24T06:02:23;98704.47;;;13.44
27815;BMP280;15190;52.122;9.956;2023-03-24T06:04:50;98691.78;;;13.46
27815;BMP280;15190;52.122;9.956;2023-03-24T06:07:16;98690.91;;;13.42
27815;BMP280;15190;52.122;9.956;2023-03-24T06:09:43;98702.78;;;13.45
27815;BMP280;15190;52.122;9.956;2023-03-24T06:12:11;98695.19;;;13.48
27815;BMP280;15190;52.122;9.956;2023-03-24T06:14:39;98697.72;;;13.48
27815;BMP280;15190;52.122;9.956;2023-03-24T06:17:06;98703.66;;;13.50
27815;BMP280;15190;52.122;9.956;2023-03-24T06:19:32;98701.09;;;13.47
27815;BMP280;15190;52.122;9.956;2023-03-24T06:21:59;98701.97;;;13.50
27815;BMP280;15190;52.122;9.956;2023-03-24T06:24:28;98712.16;;;13.52
27815;BMP280;15190;52.122;9.956;2023-03-24T06:26:54;98702.00;;;13.55
27815;BMP280;15190;52.122;9.956;2023-03-24T06:29:28;98709.63;;;13.55
27815;BMP280;15190;52.122;9.956;2023-03-24T06:31:55;98702.00;;;13.53
27815;BMP280;15190;52.122;9.956;2023-03-24T06:34:21;98712.16;;;13.56
27815;BMP280;15190;52.122;9.956;2023-03-24T06:36:50;98717.25;;;13.56
27815;BMP280;15190;52.122;9.956;2023-03-24T06:39:16;98714.72;;;13.56
27815;BMP280;15190;52.122;9.956;2023-03-24T06:41:42;98717.25;;;13.53
27815;BMP280;15190;52.122;9.956;2023-03-24T06:44:08;98737.56;;;13.56
27815;BMP280;15190;52.122;9.956;2023-03-24T06:46:34;98750.28;;;13.59
27815;BMP280;15190;52.122;9.956;2023-03-24T06:49:00;98766.38;;;13.61
27815;BMP280;15190;52.122;9.956;2023-03-24T06:51:25;98787.53;;;13.59
27815;BMP280;15190;52.122;9.956;2023-03-24T06:53:51;98784.16;;;13.60
27815;BMP280;15190;52.122;9.956;2023-03-24T06:56:17;98781.59;;;13.57
27815;BMP280;15190;52.122;9.956;2023-03-24T06:58:46;98793.50;;;13.64
27815;BMP280;15190;52.122;9.956;2023-03-24T07:01:12;98772.31;;;13.59
27815;BMP280;15190;52.122;9.956;2023-03-24T07:03:39;98786.69;;;13.57
27815;BMP280;15190;52.122;9.956;2023-03-24T07:06:07;98791.75;;;13.55
27815;BMP280;15190;52.122;9.956;2023-03-24T07:08:34;98786.56;;;13.46
27815;BMP280;15190;52.122;9.956;2023-03-24T07:11:01;98775.47;;;13.40
27815;BMP280;15190;52.122;9.956;2023-03-24T07:13:27;98779.69;;;13.38
27815;BMP280;15190;52.122;9.956;2023-03-24T07:15:53;98768.72;;;13.39
27815;BMP280;15190;52.122;9.956;2023-03-24T07:18:19;98777.97;;;13.34
27815;BMP280;15190;52.122;9.956;2023-03-24T07:20:45;98787.28;;;13.33
27815;BMP280;15190;52.122;9.956;2023-03-24T07:23:11;98799.09;;;13.33
27815;BMP280;15190;52.122;9.956;2023-03-24T07:25:39;98807.50;;;13.29
27815;BMP280;15190;52.122;9.956;2023-03-24T07:28:05;98811.78;;;13.30
27815;BMP280;15190;52.122;9.956;2023-03-24T07:30:31;98819.38;;;13.30
27815;BMP280;15190;52.122;9.956;2023-03-24T07:32:57;98813.47;;;13.31
27815;BMP280;15190;52.122;9.956;2023-03-24T07:35:23;98842.25;;;13.34
27815;BMP280;15190;52.122;9.956;2023-03-24T07:37:48;98846.53;;;13.37
27815;BMP280;15190;52.122;9.956;2023-03-24T07:40:15;98849.94;;;13.39
27815;BMP280;15190;52.122;9.956;2023-03-24T07:42:42;98839.03;;;13.46
27815;BMP280;15190;52.122;9.956;2023-03-24T07:45:11;98839.03;;;13.47
27815;BMP280;15190;52.122;9.956;2023-03-24T07:47:37;98848.41;;;13.53
27815;BMP280;15190;52.122;9.956;2023-03-24T07:50:07;98841.59;;;13.50
27815;BMP280;15190;52.122;9.956;2023-03-24T07:52:39;98850.09;;;13.52
27815;BMP280;15190;52.122;9.956;2023-03-24T07:55:06;98858.63;;;13.57
27815;BMP280;15190;52.122;9.956;2023-03-24T07:57:33;98873.06;;;13.63
27815;BMP280;15190;52.122;9.956;2023-03-24T08:00:07;98868.00;;;13.64
27815;BMP280;15190;52.122;9.956;2023-03-24T08:02:40;98860.44;;;13.68
27815;BMP280;15190;52.122;9.956;2023-03-24T08:05:07;98874.88;;;13.71
27815;BMP280;15190;52.122;9.956;2023-03-24T08:07:35;98876.56;;;13.72
27815;BMP280;15190;52.122;9.956;2023-03-24T08:10:02;98891.75;;;13.70
27815;BMP280;15190;52.122;9.956;2023-03-24T08:12:28;98879.06;;;13.70
27815;BMP280;15190;52.122;9.956;2023-03-24T08:14:54;98884.19;;;13.73
27815;BMP280;15190;52.122;9.956;2023-03-24T08:17:20;98916.44;;;13.79
27815;BMP280;15190;52.122;9.956;2023-03-24T08:19:46;98903.75;;;13.80
27815;BMP280;15190;52.122;9.956;2023-03-24T08:22:13;98914.75;;;13.81
27815;BMP280;15190;52.122;9.956;2023-03-24T08:24:38;98902.09;;;13.87
27815;BMP280;15190;52.122;9.956;2023-03-24T08:27:04;98906.38;;;13.89
27815;BMP280;15190;52.122;9.956;2023-03-24T08:29:32;98926.75;;;13.94
27815;BMP280;15190;52.122;9.956;2023-03-24T08:31:59;98915.78;;;13.96
27815;BMP280;15190;52.122;9.956;2023-03-24T08:34:26;98929.31;;;13.97
27815;BMP280;15190;52.122;9.956;2023-03-24T08:36:52;98930.25;;;14.03
27815;BMP280;15190;52.122;9.956;2023-03-24T08:39:18;98924.38;;;14.06
27815;BMP280;15190;52.122;9.956;2023-03-24T08:41:45;98933.75;;;14.14
27815;BMP280;15190;52.122;9.956;2023-03-24T08:44:12;98934.66;;;14.16
27815;BMP280;15190;52.122;9.956;2023-03-24T08:46:38;98949.09;;;14.20
27815;BMP280;15190;52.122;9.956;2023-03-24T08:49:04;98958.47;;;14.27
27815;BMP280;15190;52.122;9.956;2023-03-24T08:51:30;98983.84;;;14.24
27815;BMP280;15190;52.122;9.956;2023-03-24T08:53:57;98990.63;;;14.22
27815;BMP280;15190;52.122;9.956;2023-03-24T08:56:23;98972.91;;;14.29
27815;BMP280;15190;52.122;9.956;2023-03-24T08:58:50;98969.53;;;14.32
27815;BMP280;15190;52.122;9.956;2023-03-24T09:01:19;98995.78;;;14.29
27815;BMP280;15190;52.122;9.956;2023-03-24T09:03:45;99010.13;;;14.26
27815;BMP280;15190;52.122;9.956;2023-03-24T09:06:12;99013.63;;;14.32
27815;BMP280;15190;52.122;9.956;2023-03-24T09:08:38;99005.16;;;14.35
27815;BMP280;15190;52.122;9.956;2023-03-24T09:11:04;98982.19;;;14.27
27815;BMP280;15190;52.122;9.956;2023-03-24T09:13:30;98999.97;;;14.26
27815;BMP280;15190;52.122;9.956;2023-03-24T09:15:59;98992.38;;;14.27
27815;BMP280;15190;52.122;9.956;2023-03-24T09:18:26;98993.28;;;14.32
27815;BMP280;15190;52.122;9.956;2023-03-24T09:20:53;98989.03;;;14.36
27815;BMP280;15190;52.122;9.956;2023-03-24T09:23:19;98994.94;;;14.32
27815;BMP280;15190;52.122;9.956;2023-03-24T09:25:50;98994.94;;;14.29
27815;BMP280;15190;52.122;9.956;2023-03-24T09:28:16;98991.56;;;14.31
27815;BMP280;15190;52.122;9.956;2023-03-24T09:30:42;98981.41;;;14.33
27815;BMP280;15190;52.122;9.956;2023-03-24T09:33:09;98993.22;;;14.28
27815;BMP280;15190;52.122;9.956;2023-03-24T09:35:35;98991.50;;;14.28
27815;BMP280;15190;52.122;9.956;2023-03-24T09:38:01;98995.75;;;14.28
27815;BMP280;15190;52.122;9.956;2023-03-24T09:40:31;99003.38;;;14.28
27815;BMP280;15190;52.122;9.956;2023-03-24T09:43:05;99010.16;;;14.27
27815;BMP280;15190;52.122;9.956;2023-03-24T09:45:36;98989.84;;;14.30
27815;BMP280;15190;52.122;9.956;2023-03-24T09:48:12;98994.91;;;14.30
27815;BMP280;15190;52.122;9.956;2023-03-24T09:50:50;99005.94;;;14.29
27815;BMP280;15190;52.122;9.956;2023-03-24T09:53:31;99001.72;;;14.31
27815;BMP280;15190;52.122;9.956;2023-03-24T09:56:10;99012.66;;;14.24
27815;BMP280;15190;52.122;9.956;2023-03-24T09:58:36;99015.25;;;14.30
27815;BMP280;15190;52.122;9.956;2023-03-24T10:01:13;99018.63;;;14.26
27815;BMP280;15190;52.122;9.956;2023-03-24T10:03:41;99010.19;;;14.29
27815;BMP280;15190;52.122;9.956;2023-03-24T10:06:26;99021.13;;;14.22
27815;BMP280;15190;52.122;9.956;2023-03-24T10:17:42;99022.81;;;14.21
27815;BMP280;15190;52.122;9.956;2023-03-24T10:31:10;99020.63;;;14.57
27815;BMP280;15190;52.122;9.956;2023-03-24T10:33:40;99033.47;;;14.70
27815;BMP280;15190;52.122;9.956;2023-03-24T10:36:15;99030.09;;;14.73
27815;BMP280;15190;52.122;9.956;2023-03-24T10:38:43;99042.00;;;14.77
27815;BMP280;15190;52.122;9.956;2023-03-24T10:41:23;99037.78;;;14.79
27815;BMP280;15190;52.122;9.956;2023-03-24T10:43:50;99040.41;;;14.84
27815;BMP280;15190;52.122;9.956;2023-03-24T10:46:21;99028.59;;;14.92
27815;BMP280;15190;52.122;9.956;2023-03-24T10:48:49;99051.50;;;14.94
27815;BMP280;15190;52.122;9.956;2023-03-24T10:51:23;99042.38;;;15.15
27815;BMP280;15190;52.122;9.956;2023-03-24T10:54:09;99057.69;;;15.21
27815;BMP280;15190;52.122;9.956;2023-03-24T10:56:39;99052.56;;;15.15
27815;BMP280;15190;52.122;9.956;2023-03-24T10:59:26;99046.53;;;15.09
27815;BMP280;15190;52.122;9.956;2023-03-24T11:04:36;99054.19;;;15.10
27815;BMP280;15190;52.122;9.956;2023-03-24T11:07:12;99052.47;;;15.11
27815;BMP280;15190;52.122;9.956;2023-03-24T11:09:43;99066.97;;;15.16
27815;BMP280;15190;52.122;9.956;2023-03-24T11:12:30;99058.53;;;15.17
27815;BMP280;15190;52.122;9.956;2023-03-24T11:15:24;99060.19;;;15.14
27815;BMP280;15190;52.122;9.956;2023-03-24T11:20:43;99045.81;;;15.22
27815;BMP280;15190;52.122;9.956;2023-03-24T11:23:26;99049.22;;;15.22
27815;BMP280;15190;52.122;9.956;2023-03-24T11:26:06;99053.50;;;15.30
27815;BMP280;15190;52.122;9.956;2023-03-24T11:28:41;99052.69;;;15.34
27815;BMP280;15190;52.122;9.956;2023-03-24T11:31:09;99059.50;;;15.40
27815;BMP280;15190;52.122;9.956;2023-03-24T11:33:54;99056.13;;;15.39
27815;BMP280;15190;52.122;9.956;2023-03-24T11:39:00;99054.44;;;15.43
27815;BMP280;15190;52.122;9.956;2023-03-24T11:41:26;99051.03;;;15.41
27815;BMP280;15190;52.122;9.956;2023-03-24T11:44:21;99054.38;;;15.34
27815;BMP280;15190;52.122;9.956;2023-03-24T11:46:51;99046.75;;;15.34
27815;BMP280;15190;52.122;9.956;2023-03-24T11:49:23;99050.19;;;15.39
27815;BMP280;15190;52.122;9.956;2023-03-24T11:51:53;99047.63;;;15.39
27815;BMP280;15190;52.122;9.956;2023-03-24T11:54:23;99045.06;;;15.36
27815;BMP280;15190;52.122;9.956;2023-03-24T11:56:55;99032.38;;;15.39
27815;BMP280;15190;52.122;9.956;2023-03-24T12:02:01;99038.31;;;15.42
27815;BMP280;15190;52.122;9.956;2023-03-24T12:09:53;99042.63;;;15.52
27815;BMP280;15190;52.122;9.956;2023-03-24T12:17:38;99047.00;;;15.71
27815;BMP280;15190;52.122;9.956;2023-03-24T12:20:20;99059.72;;;15.69
27815;BMP280;15190;52.122;9.956;2023-03-24T12:23:07;99071.56;;;15.63
27815;BMP280;15190;52.122;9.956;2023-03-24T12:37:16;99095.50;;;15.90
27815;BMP280;15190;52.122;9.956;2023-03-24T12:42:39;99096.31;;;15.80
27815;BMP280;15190;52.122;9.956;2023-03-24T12:47:56;99083.53;;;15.76
27815;BMP280;15190;52.122;9.956;2023-03-24T12:50:37;99096.31;;;15.82
27815;BMP280;15190;52.122;9.956;2023-03-24T12:53:29;99086.94;;;15.79
27815;BMP280;15190;52.122;9.956;2023-03-24T12:56:00;99086.94;;;15.79
27815;BMP280;15190;52.122;9.956;2023-03-24T12:58:47;99073.34;;;15.77
27815;BMP280;15190;52.122;9.956;2023-03-24T13:01:45;99071.66;;;15.78
27815;BMP280;15190;52.122;9.956;2023-03-24T13:04:17;99067.41;;;15.78
27815;BMP280;15190;52.122;9.956;2023-03-24T13:09:42;99050.41;;;15.74
27815;BMP280;15190;52.122;9.956;2023-03-24T13:12:17;99055.50;;;15.77
27815;BMP280;15190;52.122;9.956;2023-03-24T13:14:56;99044.50;;;15.86
27815;BMP280;15190;52.122;9.956;2023-03-24T13:17:38;99042.81;;;15.88
27815;BMP280;15190;52.122;9.956;2023-03-24T13:20:15;99030.13;;;15.97
27815;BMP280;15190;52.122;9.956;2023-03-24T13:22:44;99029.25;;;15.99
27815;BMP280;15190;52.122;9.956;2023-03-24T13:25:24;99025.88;;;16.00
27815;BMP280;15190;52.122;9.956;2023-03-24T13:27:56;99031.84;;;16.06
27815;BMP280;15190;52.122;9.956;2023-03-24T13:30:30;99019.97;;;16.11
27815;BMP280;15190;52.122;9.956;2023-03-24T13:33:03;99024.28;;;16.20
27815;BMP280;15190;52.122;9.956;2023-03-24T13:38:35;99044.72;;;16.29
27815;BMP280;15190;52.122;9.956;2023-03-24T13:41:04;99051.50;;;16.30
27815;BMP280;15190;52.122;9.956;2023-03-24T13:43:31;99050.66;;;16.23
27815;BMP280;15190;52.122;9.956;2023-03-24T13:45:58;99051.47;;;16.21
27815;BMP280;15190;52.122;9.956;2023-03-24T13:53:44;99058.22;;;16.11
27815;BMP280;15190;52.122;9.956;2023-03-24T13:56:21;99056.53;;;16.09
27815;BMP280;15190;52.122;9.956;2023-03-24T14:01:37;99059.88;;;16.06
27815;BMP280;15190;52.122;9.956;2023-03-24T14:04:20;99056.50;;;16.03
27815;BMP280;15190;52.122;9.956;2023-03-24T14:14:25;99055.63;;;15.98
27815;BMP280;15190;52.122;9.956;2023-03-24T14:22:24;99059.00;;;15.93
27815;BMP280;15190;52.122;9.956;2023-03-24T14:25:05;99065.78;;;15.91
27815;BMP280;15190;52.122;9.956;2023-03-24T14:27:44;99061.53;;;15.91
27815;BMP280;15190;52.122;9.956;2023-03-24T14:30:27;99064.03;;;15.87
27815;BMP280;15190;52.122;9.956;2023-03-24T14:33:00;99058.13;;;15.88
27815;BMP280;15190;52.122;9.956;2023-03-24T14:35:56;99055.53;;;15.85
27815;BMP280;15190;52.122;9.956;2023-03-24T14:38:24;99059.78;;;15.83
27815;BMP280;15190;52.122;9.956;2023-03-24T14:40:56;99058.94;;;15.78
27815;BMP280;15190;52.122;9.956;2023-03-24T14:46:36;99060.63;;;15.80
27815;BMP280;15190;52.122;9.956;2023-03-24T14:51:49;99082.69;;;15.81
27815;BMP280;15190;52.122;9.956;2023-03-24T14:54:25;99061.47;;;15.79
27815;BMP280;15190;52.122;9.956;2023-03-24T14:56:53;99070.78;;;15.76
27815;BMP280;15190;52.122;9.956;2023-03-24T14:59:34;99064.03;;;15.81
27815;BMP280;15190;52.122;9.956;2023-03-24T15:02:15;99080.13;;;15.75
27815;BMP280;15190;52.122;9.956;2023-03-24T15:07:51;99071.66;;;15.79
27815;BMP280;15190;52.122;9.956;2023-03-24T15:10:23;99070.78;;;15.77
27815;BMP280;15190;52.122;9.956;2023-03-24T15:12:49;99076.75;;;15.75
27815;BMP280;15190;52.122;9.956;2023-03-24T15:15:21;99069.94;;;15.75
27815;BMP280;15190;52.122;9.956;2023-03-24T15:17:48;99064.03;;;15.78
27815;BMP280;15190;52.122;9.956;2023-03-24T15:20:29;99073.38;;;15.82
27815;BMP280;15190;52.122;9.956;2023-03-24T15:23:06;99062.31;;;15.81
27815;BMP280;15190;52.122;9.956;2023-03-24T15:25:33;99057.25;;;15.84
27815;BMP280;15190;52.122;9.956;2023-03-24T15:27:58;99046.19;;;15.87
27815;BMP280;15190;52.122;9.956;2023-03-24T15:30:24;99046.19;;;15.87
27815;BMP280;15190;52.122;9.956;2023-03-24T15:32:50;99038.56;;;15.90
27815;BMP280;15190;52.122;9.956;2023-03-24T15:35:19;99043.72;;;15.94
27815;BMP280;15190;52.122;9.956;2023-03-24T15:37:54;99042.88;;;15.98
27815;BMP280;15190;52.122;9.956;2023-03-24T15:42:56;99045.38;;;15.83
27815;BMP280;15190;52.122;9.956;2023-03-24T15:47:53;99055.53;;;15.80
27815;BMP280;15190;52.122;9.956;2023-03-24T15:50:34;99044.47;;;15.72
27815;BMP280;15190;52.122;9.956;2023-03-24T15:57:58;99047.81;;;15.64
27815;BMP280;15190;52.122;9.956;2023-03-24T16:00:29;99042.72;;;15.65
27815;BMP280;15190;52.122;9.956;2023-03-24T16:03:00;99040.16;;;15.63
27815;BMP280;15190;52.122;9.956;2023-03-24T16:05:30;99035.91;;;15.64
27815;BMP280;15190;52.122;9.956;2023-03-24T16:08:00;99042.69;;;15.61
27815;BMP280;15190;52.122;9.956;2023-03-24T16:10:35;99035.06;;;15.64
27815;BMP280;15190;52.122;9.956;2023-03-24T16:15:42;99024.88;;;15.64
27815;BMP280;15190;52.122;9.956;2023-03-24T16:18:13;99035.06;;;15.65
27815;BMP280;15190;52.122;9.956;2023-03-24T16:20:39;99035.88;;;15.62
27815;BMP280;15190;52.122;9.956;2023-03-24T16:23:08;99043.53;;;15.63
27815;BMP280;15190;52.122;9.956;2023-03-24T16:25:34;99058.00;;;15.64
27815;BMP280;15190;52.122;9.956;2023-03-24T16:28:00;99049.47;;;15.59
27815;BMP280;15190;52.122;9.956;2023-03-24T16:30:27;99061.34;;;15.59
27815;BMP280;15190;52.122;9.956;2023-03-24T16:32:55;99052.78;;;15.51
27815;BMP280;15190;52.122;9.956;2023-03-24T16:35:22;99066.44;;;15.53
27815;BMP280;15190;52.122;9.956;2023-03-24T16:37:48;99063.81;;;15.48
27815;BMP280;15190;52.122;9.956;2023-03-24T16:40:31;99069.78;;;15.47
27815;BMP280;15190;52.122;9.956;2023-03-24T16:42:59;99076.50;;;15.41
27815;BMP280;15190;52.122;9.956;2023-03-24T16:45:28;99095.16;;;15.40
27815;BMP280;15190;52.122;9.956;2023-03-24T16:47:54;99114.69;;;15.39
27815;BMP280;15190;52.122;9.956;2023-03-24T16:50:34;99156.28;;;15.35
27815;BMP280;15190;52.122;9.956;2023-03-24T16:53:01;99186.75;;;15.26
27815;BMP280;15190;52.122;9.956;2023-03-24T16:55:31;99188.38;;;15.20
27815;BMP280;15190;52.122;9.956;2023-03-24T16:57:57;99175.66;;;15.19
27815;BMP280;15190;52.122;9.956;2023-03-24T17:00:23;99179.03;;;15.18
27815;BMP280;15190;52.122;9.956;2023-03-24T17:02:50;99184.03;;;15.12